Eugene, Oregon
Current Conditions -  °F | °C
As of 5:54 PM on Thursday 18 Dec 2014 (Local Time) from KEUG Reporting Station
Overcast Overcast  
Wind Chill: 11°   Ceiling: 5000
Heat Index: 11°   Visibility: 10mi
Dew Point:   Wind: 9mph
Humidity: 77%   Direction: 180°S
Pressure: 29.82"   Gusts: NA
Location:  44.05°N, 123.08°W
Report Text: KEUG 190154Z 18008KT 10SM OVC050 11/07 A2982 RMK AO2 SLP099 T01110072
Loading
Personal Weather Stations






























Interactive Weather Map New forecast layout! Learn more

10-Day Weather Forecast

Advertisements
Track Severe Weather on mobile